createdAt,value
2018-01-06T00:00:41.525Z,0
2018-01-06T00:01:41.421Z,0
2018-01-06T00:02:41.141Z,0
2018-01-06T00:03:41.417Z,0
2018-01-06T00:04:41.404Z,0
2018-01-06T00:05:41.096Z,0
2018-01-06T00:06:41.082Z,0
2018-01-06T00:07:41.089Z,0
2018-01-06T00:08:40.796Z,0
2018-01-06T00:09:41.309Z,0
2018-01-06T00:10:41.028Z,0
2018-01-06T00:11:40.994Z,0
2018-01-06T00:12:41.266Z,0
2018-01-06T00:13:40.712Z,0
2018-01-06T00:14:41.215Z,0
2018-01-06T00:15:41.233Z,0
2018-01-06T00:16:41.245Z,0
2018-01-06T00:17:41.500Z,0
2018-01-06T00:18:41.155Z,0
2018-01-06T00:19:41.190Z,0
2018-01-06T00:20:41.164Z,0
2018-01-06T00:21:41.172Z,0
2018-01-06T00:22:41.121Z,0
2018-01-06T00:23:40.826Z,0
2018-01-06T00:24:40.831Z,0
2018-01-06T00:25:40.821Z,0
2018-01-06T00:26:41.045Z,0
2018-01-06T00:27:40.772Z,0
2018-01-06T00:28:41.070Z,0
2018-01-06T00:29:40.464Z,0
2018-01-06T00:30:40.748Z,0
2018-01-06T00:31:40.712Z,0
2018-01-06T00:32:41.007Z,0
2018-01-06T00:33:40.965Z,0
2018-01-06T00:34:40.658Z,0
2018-01-06T00:35:40.967Z,0
2018-01-06T00:36:41.244Z,0
2018-01-06T00:37:40.371Z,0
2018-01-06T00:38:40.887Z,0
2018-01-06T00:39:40.883Z,0
2018-01-06T00:40:40.884Z,0
2018-01-06T00:41:40.290Z,0
2018-01-06T00:42:40.837Z,0
2018-01-06T00:43:40.777Z,0
2018-01-06T00:44:40.260Z,0
2018-01-06T00:45:40.777Z,0
2018-01-06T00:46:40.534Z,0
2018-01-06T00:47:40.729Z,0
2018-01-06T00:48:40.490Z,0
2018-01-06T00:49:40.439Z,0
2018-01-06T00:50:40.740Z,0
2018-01-06T00:51:40.382Z,0
2018-01-06T00:52:40.387Z,0
2018-01-06T00:53:40.398Z,0
2018-01-06T00:54:40.084Z,0
2018-01-06T00:55:40.343Z,0
2018-01-06T00:56:40.598Z,0
2018-01-06T00:57:40.028Z,0
2018-01-06T00:58:40.044Z,0
2018-01-06T00:59:40.827Z,0
2018-01-06T01:00:40.552Z,0
2018-01-06T01:01:40.805Z,0
2018-01-06T01:02:40.246Z,0
2018-01-06T01:03:40.244Z,0
2018-01-06T01:04:40.211Z,0
2018-01-06T01:05:40.484Z,0
2018-01-06T01:06:40.467Z,0
2018-01-06T01:07:40.166Z,0
2018-01-06T01:08:40.419Z,0
2018-01-06T01:09:40.713Z,0
2018-01-06T01:10:40.395Z,0
2018-01-06T01:11:40.406Z,0
2018-01-06T01:12:40.359Z,0
2018-01-06T01:13:39.816Z,0
2018-01-06T01:14:40.063Z,0
2018-01-06T01:15:40.330Z,0
2018-01-06T01:16:40.039Z,0
2018-01-06T01:17:40.308Z,0
2018-01-06T01:18:40.283Z,0
2018-01-06T01:19:39.996Z,0
2018-01-06T01:20:39.992Z,0
2018-01-06T01:21:40.238Z,0
2018-01-06T01:22:40.486Z,0
2018-01-06T01:23:39.943Z,0
2018-01-06T01:24:40.194Z,0
2018-01-06T01:25:39.910Z,0
2018-01-06T01:26:39.667Z,0
2018-01-06T01:27:39.883Z,0
2018-01-06T01:28:39.884Z,0
2018-01-06T01:29:39.585Z,0
2018-01-06T01:30:39.840Z,0
2018-01-06T01:31:39.822Z,0
2018-01-06T01:32:39.812Z,0
2018-01-06T01:33:39.525Z,0
2018-01-06T01:34:39.511Z,0
2018-01-06T01:35:40.076Z,0
2018-01-06T01:36:39.483Z,0
2018-01-06T01:37:40.010Z,0
2018-01-06T01:38:39.734Z,0
2018-01-06T01:39:39.443Z,0
2018-01-06T01:40:39.697Z,0
2018-01-06T01:41:40.234Z,0
2018-01-06T01:42:39.958Z,0
2018-01-06T01:43:39.936Z,0
2018-01-06T01:44:39.643Z,0
2018-01-06T01:45:39.629Z,0
2018-01-06T01:46:39.616Z,0
2018-01-06T01:47:39.355Z,0
2018-01-06T01:48:39.597Z,0
2018-01-06T01:49:39.573Z,0
2018-01-06T01:50:39.586Z,0
2018-01-06T01:51:39.868Z,0
2018-01-06T01:52:39.263Z,0
2018-01-06T01:53:39.790Z,0
2018-01-06T01:54:39.794Z,0
2018-01-06T01:55:39.764Z,0
2018-01-06T01:56:40.020Z,0
2018-01-06T01:57:39.489Z,0
2018-01-06T01:58:40.273Z,0
2018-01-06T01:59:39.725Z,0
2018-01-06T02:00:39.700Z,0
2018-01-06T02:01:39.679Z,0
2018-01-06T02:02:39.943Z,0
2018-01-06T02:03:39.110Z,0
2018-01-06T02:04:39.367Z,0
2018-01-06T02:05:39.625Z,0
2018-01-06T02:06:39.356Z,0
2018-01-06T02:07:39.335Z,0
2018-01-06T02:08:39.590Z,0
2018-01-06T02:09:39.885Z,0
2018-01-06T02:10:39.280Z,0
2018-01-06T02:11:39.538Z,0
2018-01-06T02:12:39.545Z,0
2018-01-06T02:13:39.839Z,0
2018-01-06T02:14:39.243Z,0
2018-01-06T02:15:39.487Z,0
2018-01-06T02:16:39.478Z,0
2018-01-06T02:17:38.938Z,0
2018-01-06T02:18:38.906Z,0
2018-01-06T02:19:38.885Z,0
2018-01-06T02:20:39.177Z,0
2018-01-06T02:21:39.132Z,0
2018-01-06T02:22:39.136Z,0
2018-01-06T02:23:39.106Z,0
2018-01-06T02:24:39.360Z,0
2018-01-06T02:25:39.368Z,0
2018-01-06T02:26:39.337Z,0
2018-01-06T02:27:38.777Z,0
2018-01-06T02:28:39.575Z,0
2018-01-06T02:29:39.583Z,0
2018-01-06T02:30:39.009Z,0
2018-01-06T02:31:39.277Z,0
2018-01-06T02:32:38.756Z,0
2018-01-06T02:33:38.986Z,0
2018-01-06T02:34:39.781Z,0
2018-01-06T02:35:39.225Z,0
2018-01-06T02:36:39.733Z,0
2018-01-06T02:37:39.197Z,0
2018-01-06T02:38:38.898Z,0
2018-01-06T02:39:39.157Z,0
2018-01-06T02:40:38.890Z,0
2018-01-06T02:41:39.140Z,0
2018-01-06T02:42:38.858Z,0
2018-01-06T02:43:39.117Z,0
2018-01-06T02:44:38.544Z,0
2018-01-06T02:45:38.814Z,0
2018-01-06T02:46:38.514Z,0
2018-01-06T02:47:39.603Z,0
2018-01-06T02:48:39.574Z,0
2018-01-06T02:49:39.566Z,0
2018-01-06T02:50:38.744Z,0
2018-01-06T02:51:38.748Z,0
2018-01-06T02:52:38.699Z,0
2018-01-06T02:53:38.977Z,0
2018-01-06T02:54:38.777Z,0
2018-01-06T02:55:38.939Z,0
2018-01-06T02:56:38.945Z,0
2018-01-06T02:57:38.644Z,0
2018-01-06T02:58:38.638Z,0
2018-01-06T02:59:38.606Z,0
2018-01-06T03:00:38.593Z,0
2018-01-06T03:01:38.848Z,0
2018-01-06T03:02:38.859Z,0
2018-01-06T03:03:38.553Z,0
2018-01-06T03:04:38.556Z,0
2018-01-06T03:05:38.845Z,0
2018-01-06T03:06:38.778Z,0
2018-01-06T03:07:38.768Z,0
2018-01-06T03:08:38.759Z,0
2018-01-06T03:09:38.752Z,0
2018-01-06T03:10:38.198Z,0
2018-01-06T03:11:38.448Z,0
2018-01-06T03:12:38.155Z,0
2018-01-06T03:13:38.146Z,0
2018-01-06T03:14:38.125Z,0
2018-01-06T03:15:38.685Z,0
2018-01-06T03:16:38.492Z,0
2018-01-06T03:17:38.913Z,0
2018-01-06T03:18:38.069Z,0
2018-01-06T03:19:38.602Z,0
2018-01-06T03:20:38.586Z,0
2018-01-06T03:21:38.571Z,0
2018-01-06T03:22:38.562Z,0
2018-01-06T03:23:38.273Z,0
2018-01-06T03:24:38.006Z,0
2018-01-06T03:25:37.981Z,0
2018-01-06T03:26:37.964Z,0
2018-01-06T03:27:38.234Z,0
2018-01-06T03:28:38.495Z,0
2018-01-06T03:29:38.480Z,0
2018-01-06T03:30:38.474Z,0
2018-01-06T03:31:38.438Z,0
2018-01-06T03:32:38.158Z,0
2018-01-06T03:33:38.135Z,0
2018-01-06T03:34:38.141Z,0
2018-01-06T03:35:38.429Z,0
2018-01-06T03:36:38.105Z,0
2018-01-06T03:37:38.075Z,0
2018-01-06T03:38:38.332Z,0
2018-01-06T03:39:38.322Z,0
2018-01-06T03:40:38.329Z,0
2018-01-06T03:41:38.295Z,0
2018-01-06T03:42:38.006Z,0
2018-01-06T03:43:38.001Z,0
2018-01-06T03:44:38.252Z,0
2018-01-06T03:45:38.515Z,0
2018-01-06T03:46:37.956Z,0
2018-01-06T03:47:37.961Z,0
2018-01-06T03:48:38.210Z,0
2018-01-06T03:49:38.453Z,0
2018-01-06T03:50:37.900Z,0
2018-01-06T03:51:37.889Z,0
2018-01-06T03:52:37.882Z,0
2018-01-06T03:53:38.425Z,0
2018-01-06T03:54:37.862Z,0
2018-01-06T03:55:37.849Z,0
2018-01-06T03:56:38.112Z,0
2018-01-06T03:57:37.819Z,0
2018-01-06T03:58:37.518Z,0
2018-01-06T03:59:38.057Z,0
2018-01-06T04:00:37.788Z,0
2018-01-06T04:01:38.571Z,0
2018-01-06T04:02:38.011Z,0
2018-01-06T04:03:37.719Z,0
2018-01-06T04:04:38.279Z,0
2018-01-06T04:05:38.245Z,0
2018-01-06T04:06:37.690Z,0
2018-01-06T04:07:37.681Z,0
2018-01-06T04:08:37.661Z,0
2018-01-06T04:09:38.289Z,0
2018-01-06T04:10:38.273Z,0
2018-01-06T04:11:38.034Z,0
2018-01-06T04:12:38.282Z,0
2018-01-06T04:13:38.235Z,0
2018-01-06T04:14:38.005Z,0
2018-01-06T04:15:37.583Z,0
2018-01-06T04:16:38.212Z,0
2018-01-06T04:17:38.565Z,0
2018-01-06T04:18:37.925Z,0
2018-01-06T04:19:37.488Z,0
2018-01-06T04:20:37.691Z,0
2018-01-06T04:21:37.692Z,0
2018-01-06T04:22:37.462Z,0
2018-01-06T04:23:37.986Z,0
2018-01-06T04:24:38.051Z,0
2018-01-06T04:25:38.157Z,0
2018-01-06T04:26:38.012Z,0
2018-01-06T04:27:38.027Z,0
2018-01-06T04:28:37.396Z,0
2018-01-06T04:29:38.127Z,0
2018-01-06T04:30:37.771Z,0
2018-01-06T04:31:37.752Z,0
2018-01-06T04:32:37.781Z,0
2018-01-06T04:33:37.464Z,0
2018-01-06T04:34:38.002Z,0
2018-01-06T04:35:37.763Z,0
2018-01-06T04:36:37.358Z,0
2018-01-06T04:37:38.151Z,0
2018-01-06T04:38:37.510Z,0
2018-01-06T04:39:37.776Z,0
2018-01-06T04:40:38.289Z,0
2018-01-06T04:41:37.500Z,0
2018-01-06T04:42:37.510Z,0
2018-01-06T04:43:37.421Z,0
2018-01-06T04:44:38.007Z,0
2018-01-06T04:45:37.728Z,0
2018-01-06T04:46:37.138Z,0
2018-01-06T04:47:37.404Z,0
2018-01-06T04:48:37.476Z,0
2018-01-06T04:49:37.447Z,0
2018-01-06T04:50:36.907Z,0
2018-01-06T04:51:38.318Z,0
2018-01-06T04:52:37.766Z,0
2018-01-06T04:53:37.457Z,0
2018-01-06T04:54:37.389Z,0
2018-01-06T04:55:37.666Z,0
2018-01-06T04:56:37.066Z,0
2018-01-06T04:57:37.325Z,0
2018-01-06T04:58:37.331Z,0
2018-01-06T04:59:37.094Z,0
2018-01-06T05:00:37.062Z,0
2018-01-06T05:01:37.330Z,0
2018-01-06T05:02:36.998Z,0
2018-01-06T05:03:36.731Z,0
2018-01-06T05:04:37.073Z,0
2018-01-06T05:05:36.861Z,0
2018-01-06T05:06:36.608Z,0
2018-01-06T05:07:36.563Z,0
2018-01-06T05:08:36.831Z,0
2018-01-06T05:09:36.814Z,0
2018-01-06T05:10:37.088Z,0
2018-01-06T05:11:37.334Z,0
2018-01-06T05:12:36.767Z,0
2018-01-06T05:13:37.161Z,0
2018-01-06T05:14:36.848Z,0
2018-01-06T05:15:37.154Z,0
2018-01-06T05:16:37.079Z,0
2018-01-06T05:17:36.878Z,0
2018-01-06T05:18:36.788Z,0
2018-01-06T05:19:37.016Z,0
2018-01-06T05:20:36.747Z,0
2018-01-06T05:21:36.531Z,0
2018-01-06T05:22:36.455Z,0
2018-01-06T05:23:37.263Z,0
2018-01-06T05:24:37.139Z,0
2018-01-06T05:25:37.002Z,0
2018-01-06T05:26:37.144Z,0
2018-01-06T05:27:36.816Z,0
2018-01-06T05:28:36.748Z,0
2018-01-06T05:29:36.552Z,0
2018-01-06T05:30:37.210Z,0
2018-01-06T05:31:36.331Z,0
2018-01-06T05:32:36.773Z,0
2018-01-06T05:33:36.767Z,0
2018-01-06T05:34:36.742Z,0
2018-01-06T05:35:36.884Z,0
2018-01-06T05:36:36.745Z,0
2018-01-06T05:37:36.988Z,0
2018-01-06T05:38:37.144Z,0
2018-01-06T05:39:36.675Z,0
2018-01-06T05:40:36.375Z,0
2018-01-06T05:41:36.908Z,0
2018-01-06T05:42:36.911Z,0
2018-01-06T05:43:36.065Z,0
2018-01-06T05:44:36.887Z,0
2018-01-06T05:45:36.043Z,0
2018-01-06T05:46:36.570Z,0
2018-01-06T05:47:36.554Z,0
2018-01-06T05:48:36.576Z,0
2018-01-06T05:49:36.748Z,0
2018-01-06T05:50:36.773Z,0
2018-01-06T05:51:36.686Z,0
2018-01-06T05:52:36.336Z,0
2018-01-06T05:53:37.208Z,0
2018-01-06T05:54:36.045Z,0
2018-01-06T05:55:36.080Z,0
2018-01-06T05:56:36.701Z,0
2018-01-06T05:57:36.563Z,0
2018-01-06T05:58:36.684Z,0
2018-01-06T05:59:36.826Z,0
2018-01-06T06:00:36.664Z,0
2018-01-06T06:01:36.757Z,0
2018-01-06T06:02:37.199Z,0
2018-01-06T06:03:36.190Z,0
2018-01-06T06:04:36.942Z,0
2018-01-06T06:05:36.310Z,0
2018-01-06T06:06:36.634Z,0
2018-01-06T06:07:36.255Z,0
2018-01-06T06:08:36.721Z,0
2018-01-06T06:09:35.978Z,0
2018-01-06T06:10:36.560Z,0
2018-01-06T06:11:36.238Z,0
2018-01-06T06:12:36.001Z,0
2018-01-06T06:13:36.244Z,0
2018-01-06T06:14:35.672Z,0
2018-01-06T06:15:36.442Z,0
2018-01-06T06:16:36.162Z,0
2018-01-06T06:17:35.593Z,0
2018-01-06T06:18:36.335Z,0
2018-01-06T06:19:36.126Z,0
2018-01-06T06:20:36.096Z,0
2018-01-06T06:21:35.831Z,0
2018-01-06T06:22:35.531Z,0
2018-01-06T06:23:35.823Z,0
2018-01-06T06:24:35.764Z,0
2018-01-06T06:25:35.754Z,0
2018-01-06T06:26:36.005Z,0
2018-01-06T06:27:35.739Z,0
2018-01-06T06:28:35.706Z,0
2018-01-06T06:29:35.971Z,0
2018-01-06T06:30:35.679Z,0
2018-01-06T06:31:36.257Z,0
2018-01-06T06:32:36.477Z,0
2018-01-06T06:33:35.908Z,0
2018-01-06T06:34:35.629Z,0
2018-01-06T06:35:35.897Z,0
2018-01-06T06:36:35.615Z,0
2018-01-06T06:37:35.581Z,0
2018-01-06T06:38:35.849Z,0
2018-01-06T06:39:35.278Z,0
2018-01-06T06:40:37.899Z,0
2018-01-06T06:41:35.797Z,0
2018-01-06T06:42:35.519Z,0
2018-01-06T06:43:35.770Z,0
2018-01-06T06:44:36.041Z,0
2018-01-06T06:45:35.193Z,0
2018-01-06T06:46:35.177Z,0
2018-01-06T06:47:35.714Z,0
2018-01-06T06:48:35.158Z,0
2018-01-06T06:49:35.141Z,0
2018-01-06T06:50:35.939Z,0
2018-01-06T06:51:35.697Z,0
2018-01-06T06:52:35.116Z,0
2018-01-06T06:53:35.626Z,0
2018-01-06T06:54:35.885Z,0
2018-01-06T06:55:35.862Z,0
2018-01-06T06:56:35.307Z,0
2018-01-06T06:57:35.019Z,0
2018-01-06T06:58:35.553Z,0
2018-01-06T06:59:35.261Z,0
2018-01-06T07:00:35.276Z,0
2018-01-06T07:01:34.962Z,0
2018-01-06T07:02:34.945Z,0
2018-01-06T07:03:35.254Z,0
2018-01-06T07:04:35.185Z,0
2018-01-06T07:05:35.504Z,0
2018-01-06T07:06:34.905Z,5
2018-01-06T07:07:35.139Z,5
2018-01-06T07:08:35.133Z,5
2018-01-06T07:09:35.403Z,5
2018-01-06T07:10:35.606Z,5
2018-01-06T07:11:35.084Z,5
2018-01-06T07:12:35.118Z,5
2018-01-06T07:13:35.113Z,5
2018-01-06T07:14:35.398Z,5
2018-01-06T07:15:35.339Z,5
2018-01-06T07:16:35.008Z,10
2018-01-06T07:17:35.533Z,10
2018-01-06T07:18:34.711Z,10
2018-01-06T07:19:34.689Z,10
2018-01-06T07:20:35.222Z,10
2018-01-06T07:21:35.268Z,10
2018-01-06T07:22:34.921Z,10
2018-01-06T07:23:35.187Z,15
2018-01-06T07:24:34.910Z,15
2018-01-06T07:25:35.140Z,15
2018-01-06T07:26:35.417Z,15
2018-01-06T07:27:34.839Z,15
2018-01-06T07:28:34.831Z,15
2018-01-06T07:29:34.810Z,15
2018-01-06T07:30:34.800Z,15
2018-01-06T07:31:35.074Z,15
2018-01-06T07:32:34.770Z,20
2018-01-06T07:33:35.039Z,20
2018-01-06T07:34:34.469Z,20
2018-01-06T07:35:34.738Z,20
2018-01-06T07:36:35.350Z,20
2018-01-06T07:37:35.096Z,25
2018-01-06T07:38:35.512Z,25
2018-01-06T07:39:34.736Z,25
2018-01-06T07:40:34.942Z,25
2018-01-06T07:41:34.979Z,25
2018-01-06T07:42:34.377Z,25
2018-01-06T07:43:34.605Z,25
2018-01-06T07:44:34.600Z,25
2018-01-06T07:45:34.847Z,30
2018-01-06T07:46:35.114Z,30
2018-01-06T07:47:34.824Z,30
2018-01-06T07:48:35.083Z,35
2018-01-06T07:49:35.353Z,35
2018-01-06T07:50:34.774Z,40
2018-01-06T07:51:34.522Z,35
2018-01-06T07:52:34.470Z,35
2018-01-06T07:53:34.739Z,40
2018-01-06T07:54:34.435Z,40
2018-01-06T07:55:34.441Z,40
2018-01-06T07:56:34.415Z,40
2018-01-06T07:57:34.684Z,40
2018-01-06T07:58:34.381Z,45
2018-01-06T07:59:34.381Z,45
2018-01-06T08:00:34.896Z,50
2018-01-06T08:01:34.891Z,50
2018-01-06T08:02:34.319Z,50
2018-01-06T08:03:34.588Z,55
2018-01-06T08:04:34.839Z,50
2018-01-06T08:05:35.096Z,50
2018-01-06T08:06:34.265Z,50
2018-01-06T08:07:34.516Z,45
2018-01-06T08:08:34.230Z,45
2018-01-06T08:09:34.227Z,45
2018-01-06T08:10:33.928Z,45
2018-01-06T08:11:34.738Z,45
2018-01-06T08:12:34.169Z,45
2018-01-06T08:13:34.156Z,45
2018-01-06T08:14:34.417Z,45
2018-01-06T08:15:34.392Z,50
2018-01-06T08:16:33.841Z,50
2018-01-06T08:17:34.097Z,50
2018-01-06T08:18:34.391Z,55
2018-01-06T08:19:34.072Z,55
2018-01-06T08:20:34.615Z,55
2018-01-06T08:21:34.092Z,55
2018-01-06T08:22:34.026Z,55
2018-01-06T08:23:34.304Z,55
2018-01-06T08:24:34.541Z,60
2018-01-06T08:25:34.003Z,60
2018-01-06T08:26:34.520Z,55
2018-01-06T08:27:33.957Z,55
2018-01-06T08:28:33.673Z,55
2018-01-06T08:29:33.654Z,55
2018-01-06T08:30:34.469Z,55
2018-01-06T08:31:34.165Z,55
2018-01-06T08:32:34.157Z,55
2018-01-06T08:33:34.155Z,55
2018-01-06T08:34:33.856Z,55
2018-01-06T08:35:33.832Z,55
2018-01-06T08:36:34.396Z,55
2018-01-06T08:37:33.533Z,55
2018-01-06T08:38:33.811Z,55
2018-01-06T08:39:33.508Z,55
2018-01-06T08:40:33.761Z,55
2018-01-06T08:41:33.503Z,55
2018-01-06T08:42:34.010Z,55
2018-01-06T08:43:33.722Z,55
2018-01-06T08:44:33.442Z,55
2018-01-06T08:45:33.693Z,55
2018-01-06T08:46:33.982Z,60
2018-01-06T08:47:33.657Z,60
2018-01-06T08:48:33.927Z,60
2018-01-06T08:49:33.925Z,60
2018-01-06T08:50:33.885Z,60
2018-01-06T08:51:34.140Z,60
2018-01-06T08:52:33.313Z,60
2018-01-06T08:53:34.139Z,60
2018-01-06T08:54:33.840Z,60
2018-01-06T08:55:33.564Z,60
2018-01-06T08:56:33.795Z,60
2018-01-06T08:57:33.806Z,60
2018-01-06T08:58:33.253Z,60
2018-01-06T08:59:33.484Z,60
2018-01-06T09:00:33.473Z,60
2018-01-06T09:01:33.202Z,65
2018-01-06T09:02:33.989Z,65
2018-01-06T09:03:33.154Z,65
2018-01-06T09:04:33.433Z,65
2018-01-06T09:05:33.753Z,70
2018-01-06T09:06:33.111Z,70
2018-01-06T09:07:33.368Z,75
2018-01-06T09:08:33.619Z,75
2018-01-06T09:09:33.390Z,80
2018-01-06T09:10:33.595Z,85
2018-01-06T09:11:33.582Z,85
2018-01-06T09:12:33.567Z,90
2018-01-06T09:13:33.007Z,95
2018-01-06T09:14:32.994Z,95
2018-01-06T09:15:32.973Z,90
2018-01-06T09:16:33.266Z,85
2018-01-06T09:17:33.223Z,80
2018-01-06T09:18:33.220Z,75
2018-01-06T09:19:33.748Z,75
2018-01-06T09:20:33.472Z,70
2018-01-06T09:21:33.706Z,75
2018-01-06T09:22:33.435Z,75
2018-01-06T09:23:33.431Z,70
2018-01-06T09:24:33.130Z,70
2018-01-06T09:25:33.108Z,70
2018-01-06T09:26:33.372Z,70
2018-01-06T09:27:33.081Z,75
2018-01-06T09:28:33.074Z,75
2018-01-06T09:29:33.049Z,80
2018-01-06T09:30:33.329Z,85
2018-01-06T09:31:33.030Z,90
2018-01-06T09:32:33.001Z,95
2018-01-06T09:33:32.994Z,100
2018-01-06T09:34:32.977Z,105
2018-01-06T09:35:33.233Z,115
2018-01-06T09:36:33.541Z,115
2018-01-06T09:37:33.474Z,115
2018-01-06T09:38:33.197Z,115
2018-01-06T09:39:32.924Z,115
2018-01-06T09:40:33.185Z,120
2018-01-06T09:41:32.615Z,125
2018-01-06T09:42:32.616Z,130
2018-01-06T09:43:32.856Z,135
2018-01-06T09:44:33.109Z,140
2018-01-06T09:45:32.573Z,145
2018-01-06T09:46:32.807Z,150
2018-01-06T09:47:32.802Z,155
2018-01-06T09:48:33.320Z,145
2018-01-06T09:49:32.771Z,145
2018-01-06T09:50:32.755Z,150
2018-01-06T09:51:33.006Z,150
2018-01-06T09:52:33.015Z,145
2018-01-06T09:53:32.724Z,140
2018-01-06T09:54:32.734Z,130
2018-01-06T09:55:32.968Z,125
2018-01-06T09:56:32.953Z,125
2018-01-06T09:57:32.936Z,135
2018-01-06T09:58:33.190Z,140
2018-01-06T09:59:32.635Z,145
2018-01-06T10:00:32.903Z,145
2018-01-06T10:01:33.148Z,150
2018-01-06T10:02:32.651Z,150
2018-01-06T10:03:32.849Z,155
2018-01-06T10:04:32.565Z,155
2018-01-06T10:05:32.616Z,150
2018-01-06T10:06:32.816Z,145
2018-01-06T10:07:32.812Z,145
2018-01-06T10:08:33.074Z,145
2018-01-06T10:09:32.829Z,145
2018-01-06T10:10:32.488Z,145
2018-01-06T10:11:32.499Z,145
2018-01-06T10:12:32.468Z,140
2018-01-06T10:13:32.461Z,135
2018-01-06T10:14:33.259Z,135
2018-01-06T10:15:32.432Z,135
2018-01-06T10:16:32.687Z,130
2018-01-06T10:17:32.406Z,120
2018-01-06T10:18:32.121Z,115
2018-01-06T10:19:32.377Z,120
2018-01-06T10:20:32.659Z,110
2018-01-06T10:21:32.089Z,110
2018-01-06T10:22:32.347Z,110
2018-01-06T10:23:32.636Z,115
2018-01-06T10:24:32.308Z,120
2018-01-06T10:25:32.316Z,125
2018-01-06T10:26:32.306Z,140
2018-01-06T10:27:32.552Z,145
2018-01-06T10:28:32.259Z,155
2018-01-06T10:29:32.524Z,160
2018-01-06T10:30:32.508Z,155
2018-01-06T10:31:32.265Z,150
2018-01-06T10:32:32.488Z,150
2018-01-06T10:33:32.216Z,145
2018-01-06T10:34:32.503Z,135
2018-01-06T10:35:31.904Z,130
2018-01-06T10:36:32.719Z,120
2018-01-06T10:37:32.445Z,120
2018-01-06T10:38:32.703Z,120
2018-01-06T10:39:31.852Z,125
2018-01-06T10:40:32.125Z,125
2018-01-06T10:41:32.105Z,125
2018-01-06T10:42:31.831Z,125
2018-01-06T10:43:32.081Z,120
2018-01-06T10:44:32.338Z,115
2018-01-06T10:45:32.049Z,115
2018-01-06T10:46:32.316Z,115
2018-01-06T10:47:32.847Z,120
2018-01-06T10:48:32.030Z,130
2018-01-06T10:49:32.547Z,130
2018-01-06T10:50:31.718Z,130
2018-01-06T10:51:31.981Z,130
2018-01-06T10:52:32.240Z,130
2018-01-06T10:53:32.245Z,130
2018-01-06T10:54:32.248Z,130
2018-01-06T10:55:32.202Z,125
2018-01-06T10:56:31.924Z,120
2018-01-06T10:57:31.643Z,120
2018-01-06T10:58:32.169Z,125
2018-01-06T10:59:31.882Z,125
2018-01-06T11:00:31.598Z,135
2018-01-06T11:01:32.134Z,150
2018-01-06T11:02:32.116Z,150
2018-01-06T11:03:32.106Z,155
2018-01-06T11:04:32.094Z,160
2018-01-06T11:05:31.810Z,165
2018-01-06T11:06:32.066Z,165
2018-01-06T11:07:32.058Z,170
2018-01-06T11:08:32.321Z,170
2018-01-06T11:09:31.778Z,155
2018-01-06T11:10:31.751Z,150
2018-01-06T11:11:32.543Z,150
2018-01-06T11:12:31.739Z,150
2018-01-06T11:13:31.713Z,145
2018-01-06T11:14:31.700Z,145
2018-01-06T11:15:31.688Z,145
2018-01-06T11:16:31.683Z,145
2018-01-06T11:17:31.676Z,145
2018-01-06T11:18:31.656Z,145
2018-01-06T11:19:32.182Z,145
2018-01-06T11:20:31.928Z,145
2018-01-06T11:21:31.615Z,140
2018-01-06T11:22:31.608Z,140
2018-01-06T11:23:31.870Z,140
2018-01-06T11:24:31.858Z,140
2018-01-06T11:25:31.843Z,140
2018-01-06T11:26:32.128Z,145
2018-01-06T11:27:31.815Z,140
2018-01-06T11:28:31.540Z,140
2018-01-06T11:29:31.288Z,140
2018-01-06T11:30:31.512Z,135
2018-01-06T11:31:31.501Z,135
2018-01-06T11:32:32.031Z,130
2018-01-06T11:33:31.772Z,125
2018-01-06T11:34:32.023Z,125
2018-01-06T11:35:31.448Z,120
2018-01-06T11:36:31.438Z,125
2018-01-06T11:37:31.427Z,125
2018-01-06T11:38:31.975Z,130
2018-01-06T11:39:31.411Z,130
2018-01-06T11:40:31.405Z,135
2018-01-06T11:41:31.394Z,130
2018-01-06T11:42:31.633Z,135
2018-01-06T11:43:31.634Z,135
2018-01-06T11:44:31.890Z,135
2018-01-06T11:45:31.335Z,135
2018-01-06T11:46:31.861Z,135
2018-01-06T11:47:31.306Z,135
2018-01-06T11:48:31.566Z,140
2018-01-06T11:49:31.559Z,140
2018-01-06T11:50:31.831Z,145
2018-01-06T11:51:31.267Z,145
2018-01-06T11:52:31.799Z,150
2018-01-06T11:53:31.509Z,150
2018-01-06T11:54:31.221Z,150
2018-01-06T11:55:30.944Z,145
2018-01-06T11:56:30.930Z,145
2018-01-06T11:57:30.921Z,145
2018-01-06T11:58:31.204Z,145
2018-01-06T11:59:31.440Z,145
2018-01-06T12:00:31.432Z,145
2018-01-06T12:01:31.435Z,150
2018-01-06T12:02:31.698Z,150
2018-01-06T12:03:31.401Z,150
2018-01-06T12:04:31.122Z,160
2018-01-06T12:05:31.097Z,160
2018-01-06T12:06:31.369Z,160
2018-01-06T12:07:31.072Z,155
2018-01-06T12:08:31.332Z,160
2018-01-06T12:09:31.049Z,170
2018-01-06T12:10:31.325Z,175
2018-01-06T12:11:31.036Z,180
2018-01-06T12:12:31.576Z,180
2018-01-06T12:13:31.011Z,180
2018-01-06T12:14:30.990Z,180
2018-01-06T12:15:31.270Z,175
2018-01-06T12:16:31.221Z,180
2018-01-06T12:17:31.228Z,185
2018-01-06T12:18:31.213Z,180
2018-01-06T12:19:30.941Z,175
2018-01-06T12:20:31.196Z,170
2018-01-06T12:21:31.453Z,150
2018-01-06T12:22:30.896Z,145
2018-01-06T12:23:30.894Z,135
2018-01-06T12:24:31.146Z,130
2018-01-06T12:25:30.865Z,130
2018-01-06T12:26:31.123Z,125
2018-01-06T12:27:30.868Z,130
2018-01-06T12:28:31.100Z,130
2018-01-06T12:29:31.098Z,130
2018-01-06T12:30:30.808Z,130
2018-01-06T12:31:31.335Z,130
2018-01-06T12:32:30.794Z,130
2018-01-06T12:33:31.049Z,135
2018-01-06T12:34:30.763Z,140
2018-01-06T12:35:30.767Z,145
2018-01-06T12:36:31.282Z,145
2018-01-06T12:37:30.458Z,145
2018-01-06T12:38:30.984Z,145
2018-01-06T12:39:30.701Z,140
2018-01-06T12:40:30.692Z,140
2018-01-06T12:41:31.251Z,135
2018-01-06T12:42:30.677Z,135
2018-01-06T12:43:30.932Z,130
2018-01-06T12:44:30.655Z,125
2018-01-06T12:45:30.948Z,120
2018-01-06T12:46:30.631Z,120
2018-01-06T12:47:30.629Z,115
2018-01-06T12:48:30.329Z,120
2018-01-06T12:49:30.593Z,120
2018-01-06T12:50:30.858Z,120
2018-01-06T12:51:30.291Z,120
2018-01-06T12:52:30.563Z,115
2018-01-06T12:53:31.088Z,115
2018-01-06T12:54:30.533Z,110
2018-01-06T12:55:30.794Z,110
2018-01-06T12:56:30.507Z,115
2018-01-06T12:57:30.228Z,115
2018-01-06T12:58:31.041Z,110
2018-01-06T12:59:30.769Z,110
2018-01-06T13:00:30.758Z,110
2018-01-06T13:01:30.754Z,110
2018-01-06T13:02:30.181Z,105
2018-01-06T13:03:30.707Z,105
2018-01-06T13:04:30.418Z,105
2018-01-06T13:05:30.690Z,100
2018-01-06T13:06:30.396Z,95
2018-01-06T13:07:30.135Z,90
2018-01-06T13:08:30.114Z,85
2018-01-06T13:09:30.091Z,80
2018-01-06T13:10:30.350Z,80
2018-01-06T13:11:30.607Z,80
2018-01-06T13:12:30.604Z,80
2018-01-06T13:13:30.588Z,80
2018-01-06T13:14:30.614Z,80
2018-01-06T13:15:30.598Z,75
2018-01-06T13:16:30.840Z,75
2018-01-06T13:17:30.554Z,70
2018-01-06T13:18:30.800Z,70
2018-01-06T13:19:30.262Z,70
2018-01-06T13:20:29.971Z,70
2018-01-06T13:21:30.235Z,70
2018-01-06T13:22:30.233Z,65
2018-01-06T13:23:30.479Z,65
2018-01-06T13:24:30.472Z,65
2018-01-06T13:25:30.451Z,65
2018-01-06T13:26:30.190Z,70
2018-01-06T13:27:30.439Z,70
2018-01-06T13:28:30.435Z,70
2018-01-06T13:29:30.137Z,70
2018-01-06T13:30:29.849Z,65
2018-01-06T13:31:30.123Z,65
2018-01-06T13:32:30.100Z,60
2018-01-06T13:33:30.107Z,60
2018-01-06T13:34:30.082Z,65
2018-01-06T13:35:29.789Z,65
2018-01-06T13:36:30.051Z,70
2018-01-06T13:37:30.051Z,70
2018-01-06T13:38:30.570Z,70
2018-01-06T13:39:30.038Z,70
2018-01-06T13:40:30.295Z,65
2018-01-06T13:41:30.536Z,60
2018-01-06T13:42:30.261Z,60
2018-01-06T13:43:29.972Z,65
2018-01-06T13:44:30.250Z,65
2018-01-06T13:45:30.229Z,65
2018-01-06T13:46:29.660Z,60
2018-01-06T13:47:29.673Z,55
2018-01-06T13:48:29.649Z,50
2018-01-06T13:49:30.454Z,45
2018-01-06T13:50:29.880Z,40
2018-01-06T13:51:29.929Z,35
2018-01-06T13:52:29.598Z,30
2018-01-06T13:53:29.580Z,30
2018-01-06T13:54:29.564Z,30
2018-01-06T13:55:29.564Z,30
2018-01-06T13:56:29.822Z,30
2018-01-06T13:57:29.832Z,30
2018-01-06T13:58:29.806Z,30
2018-01-06T13:59:30.115Z,30
2018-01-06T14:00:30.334Z,25
2018-01-06T14:01:30.037Z,25
2018-01-06T14:02:29.760Z,25
2018-01-06T14:03:29.744Z,25
2018-01-06T14:04:30.554Z,30
2018-01-06T14:05:29.704Z,25
2018-01-06T14:06:29.728Z,25
2018-01-06T14:07:29.415Z,25
2018-01-06T14:08:29.432Z,25
2018-01-06T14:09:30.215Z,25
2018-01-06T14:10:29.931Z,25
2018-01-06T14:11:29.904Z,20
2018-01-06T14:12:29.904Z,20
2018-01-06T14:13:29.640Z,20
2018-01-06T14:14:29.339Z,20
2018-01-06T14:15:29.355Z,20
2018-01-06T14:16:29.858Z,20
2018-01-06T14:17:29.577Z,20
2018-01-06T14:18:29.826Z,15
2018-01-06T14:19:30.076Z,15
2018-01-06T14:20:30.106Z,15
2018-01-06T14:21:29.506Z,15
2018-01-06T14:22:29.519Z,15
2018-01-06T14:23:29.491Z,15